Rostein — LLHI — position and weather

sailwx.info

Track history (hours):
 
Tides and Currents Weather Stations Pressure Air Temp Water Temp Dewpoint Dewpoint Depression Visibility Wind Speed Wind Dir Waves Ship Positions

Rostein

Last reported at 2016-Dec-03 04:20 UTC. Time now 2016-Dec-08 06:09 UTC.
Position N 70°02' E 020°17'.

Length 57 m; draft 4 m.

Type: Cargo ship. MMSI: 257210000.

Date/timePositionNaut miles runAvg speedWind from/ knotsBaromVisibWave heightAir tempDewpointWater temp
2016-Dec-03 04:20N 70°02' E 020°17'5 6.9
2016-Dec-03 03:33N 70°02' E 020°01'7 6.9
2016-Dec-03 02:32N 70°03' E 019°41'7 6.7
2016-Dec-03 01:33N 70°03' E 019°22'2 1.6
2016-Dec-03 00:33N 70°04' E 019°18'0 0.0
2016-Dec-02 23:33N 70°04' E 019°18'0 0.0
2016-Dec-02 22:32N 70°04' E 019°18'0 0.0
2016-Dec-02 21:32N 70°04' E 019°18'2410.9
2016-Dec-02 19:19N 70°01' E 020°29'6 7.6
2016-Dec-02 18:33N 70°02' E 020°46'8829.2
2016-Dec-02 15:32N 69°22' E 017°02'0 0.0
2016-Dec-02 14:33N 69°22' E 017°02'0 0.0
2016-Dec-02 13:33N 69°22' E 017°02'0 0.0
2016-Dec-02 12:33N 69°22' E 017°02'0 0.0
2016-Dec-02 11:33N 69°22' E 017°02'0 0.0
2016-Dec-02 10:14N 69°22' E 017°02'4363.8
2016-Dec-02 09:33N 69°49' E 018°40'4 3.4
2016-Dec-02 08:32N 69°52' E 018°38'4 3.7
2016-Dec-02 07:32N 69°53' E 018°48'6 5.5
2016-Dec-02 06:31N 69°49' E 018°60'5 5.3
2016-Dec-02 05:32N 69°47' E 019°13'6 5.5
2016-Dec-02 04:28N 69°49' E 019°30'19 6.4
2016-Dec-02 01:33N 69°59' E 020°15'28 9.2
2016-Dec-01 22:32N 69°45' E 019°06'8 7.9
2016-Dec-01 21:33N 69°48' E 019°26'8 8.2
2016-Dec-01 20:33N 69°52' E 019°48'9 8.6
2016-Dec-01 19:33N 69°57' E 020°07'18 8.3
2016-Dec-01 17:20N 70°04' E 020°57'2 2.5
2016-Dec-01 16:33N 70°02' E 020°59'2 1.5
2016-Dec-01 15:13N 70°04' E 020°56'5 7.5
2016-Dec-01 14:32N 70°01' E 020°42'2 1.7
2016-Dec-01 13:33N 69°60' E 020°43'0 0.0
2016-Dec-01 12:34N 69°60' E 020°43'0 0.0
2016-Dec-01 11:31N 69°60' E 020°43'3 2.6
2016-Dec-01 10:33N 70°02' E 020°45'6 5.8
2016-Dec-01 09:33N 70°03' E 021°02'1 1.1
2016-Dec-01 08:33N 70°02' E 020°59'2 1.9
2016-Dec-01 07:33N 70°04' E 020°56'6 6.0
2016-Dec-01 06:32N 70°00' E 020°41'1 0.9
2016-Dec-01 05:33N 69°60' E 020°43'0 0.0
2016-Dec-01 04:33N 69°60' E 020°43'0 0.0
2016-Dec-01 03:33N 69°60' E 020°43'4 3.6
2016-Dec-01 02:33N 70°03' E 020°48'7 7.5
2016-Dec-01 01:33N 70°04' E 021°09'7 7.4
2016-Dec-01 00:33N 70°04' E 021°31'7 7.3
2016-Nov-30 23:32N 70°04' E 021°53'0 0.1
2016-Nov-30 22:33N 70°04' E 021°53'5 3.8
2016-Nov-30 21:17N 69°60' E 021°44'6 0.9
2016-Nov-30 14:09N 69°55' E 021°36'5 2.9
2016-Nov-30 12:33N 69°59' E 021°35'7 6.8
2016-Nov-30 11:32N 70°04' E 021°19'7 6.9
2016-Nov-30 10:34N 70°04' E 020°59'6 6.4
2016-Nov-30 09:33N 70°02' E 020°41'7 7.3
2016-Nov-30 08:32N 69°60' E 020°21'7 7.5
2016-Nov-30 07:33N 69°56' E 020°03'8 7.7
2016-Nov-30 06:33N 69°51' E 019°46'8 7.5
2016-Nov-30 05:33N 69°48' E 019°25'7 7.0
2016-Nov-30 04:33N 69°45' E 019°07'8 7.7
2016-Nov-30 03:33N 69°38' E 018°57'8 7.9
2016-Nov-30 02:32N 69°33' E 018°39'8 8.3
2016-Nov-30 01:33N 69°30' E 018°18'7 6.9
2016-Nov-30 00:34N 69°24' E 018°06'8 7.9
2016-Nov-29 23:33N 69°17' E 017°58'7 7.0
2016-Nov-29 22:33N 69°10' E 017°56'9 8.7
2016-Nov-29 21:33N 69°07' E 017°34'8 8.1
2016-Nov-29 20:33N 69°01' E 017°17'8 7.7
2016-Nov-29 19:33N 68°56' E 017°01'8 7.5
2016-Nov-29 18:32N 68°51' E 016°45'6 5.8
2016-Nov-29 17:33N 68°47' E 016°33'0 0.0
2016-Nov-29 16:34N 68°47' E 016°33'0 0.0
2016-Nov-29 15:33N 68°47' E 016°33'0 0.0
2016-Nov-29 14:33N 68°47' E 016°33'0 0.0
2016-Nov-29 13:33N 68°47' E 016°33'0 0.0
2016-Nov-29 12:33N 68°47' E 016°33'0 0.0
2016-Nov-29 11:33N 68°47' E 016°33'0 0.0
2016-Nov-29 10:33N 68°47' E 016°33'0 0.0
2016-Nov-29 09:34N 68°47' E 016°33'0 0.0
2016-Nov-29 08:33N 68°47' E 016°33'0 0.0
2016-Nov-29 07:33N 68°47' E 016°33'0 0.0
2016-Nov-29 06:33N 68°47' E 016°33'0 0.0
2016-Nov-29 05:33N 68°47' E 016°33'0 0.0
2016-Nov-29 04:33N 68°47' E 016°33'0 0.0
2016-Nov-29 03:33N 68°47' E 016°33'0 0.0
2016-Nov-29 02:33N 68°47' E 016°33'0 0.0
2016-Nov-29 01:33N 68°47' E 016°33'0 0.0
2016-Nov-29 00:33N 68°47' E 016°33'0 0.0
2016-Nov-28 23:33N 68°47' E 016°33'0 0.0
2016-Nov-28 22:33N 68°47' E 016°33'0 0.0
2016-Nov-28 21:33N 68°47' E 016°33'0 0.0
2016-Nov-28 20:33N 68°47' E 016°33'0 0.0
2016-Nov-28 19:33N 68°47' E 016°33'0 0.0
2016-Nov-28 18:33N 68°47' E 016°33'0 0.0
2016-Nov-28 17:33N 68°47' E 016°33'0 0.0
2016-Nov-28 16:33N 68°47' E 016°33'11 5.1
2016-Nov-28 14:26N 68°54' E 016°57'7 8.2
2016-Nov-28 13:31N 68°56' E 017°17'7 7.4
2016-Nov-28 12:32N 68°54' E 017°36'2 2.0
2016-Nov-28 11:33N 68°54' E 017°41'1 1.1
2016-Nov-28 10:33N 68°54' E 017°39'6 5.8
2016-Nov-28 09:33N 68°50' E 017°28'2 1.5
2016-Nov-28 08:32N 68°49' E 017°31'0 0.4
2016-Nov-28 07:33N 68°49' E 017°31'6 6.0
2016-Nov-28 06:32N 68°54' E 017°41'0 0.4
2016-Nov-28 05:31N 68°54' E 017°41'1 0.6
2016-Nov-28 04:32N 68°54' E 017°40'6 5.6
2016-Nov-28 03:33N 68°50' E 017°28'2 2.1
2016-Nov-28 02:33N 68°49' E 017°31'0 0.0
2016-Nov-28 01:33N 68°49' E 017°31'6 5.5
2016-Nov-28 00:32N 68°47' E 017°17'8 8.2
2016-Nov-27 23:33N 68°43' E 016°57'4 4.3
2016-Nov-27 22:32N 68°47' E 016°55'0 0.0
2016-Nov-27 21:33N 68°47' E 016°55'3434.5
2016-Nov-27 20:33N 69°12' E 018°01'1111.3
2016-Nov-27 19:34N 69°06' E 017°33'2323.1
2016-Nov-27 18:33N 68°47' E 016°55'0 0.0
2016-Nov-27 17:33N 68°47' E 016°55'0 0.0
2016-Nov-27 16:32N 68°47' E 016°55'1 1.0
2016-Nov-27 15:33N 68°48' E 016°53'0 0.1
2016-Nov-27 14:33N 68°48' E 016°53'4 4.4
2016-Nov-27 13:32N 68°53' E 016°55'6 6.5
2016-Nov-27 12:33N 68°57' E 017°08'14 6.9
2016-Nov-27 10:32N 69°07' E 017°35'19 5.8
2016-Nov-27 07:14N 69°23' E 018°05'5 6.8
2016-Nov-27 06:32N 69°28' E 018°07'10 7.0
2016-Nov-27 05:09N 69°32' E 018°32'4 7.0
2016-Nov-27 04:33N 69°33' E 018°44'7 6.8
2016-Nov-27 03:33N 69°38' E 018°57'1 0.8
2016-Nov-27 02:33N 69°39' E 018°58'0 0.0
2016-Nov-27 01:33N 69°39' E 018°58'0 0.0
2016-Nov-27 00:33N 69°39' E 018°58'0 0.0
2016-Nov-26 23:33N 69°39' E 018°58'0 0.0
2016-Nov-26 22:33N 69°39' E 018°58'0 0.0
2016-Nov-26 21:32N 69°39' E 018°58'0 0.0
2016-Nov-26 20:33N 69°39' E 018°58'0 0.0
2016-Nov-26 19:33N 69°39' E 018°58'0 0.0
2016-Nov-26 18:32N 69°39' E 018°58'0 0.0
2016-Nov-26 17:33N 69°39' E 018°58'0 0.0
2016-Nov-26 16:32N 69°39' E 018°58'0 0.0
2016-Nov-26 15:33N 69°39' E 018°58'0 0.0
2016-Nov-26 14:33N 69°39' E 018°58'0 0.0
2016-Nov-26 13:33N 69°39' E 018°58'0 0.0
2016-Nov-26 12:32N 69°39' E 018°58'0 0.0
2016-Nov-26 11:33N 69°39' E 018°58'0 0.0
2016-Nov-26 10:32N 69°39' E 018°58'0 0.0
2016-Nov-26 09:33N 69°39' E 018°58'0 0.0
2016-Nov-26 08:33N 69°39' E 018°58'1 0.6
2016-Nov-26 07:33N 69°40' E 018°58'0 0.0
2016-Nov-26 06:32N 69°40' E 018°58'0 0.0
2016-Nov-26 05:33N 69°40' E 018°58'0 0.0
2016-Nov-26 04:32N 69°40' E 018°58'5757.5
2016-Nov-26 03:33N 68°58' E 017°10'10 9.9
2016-Nov-26 02:33N 69°06' E 017°26'1010.4
2016-Nov-26 01:34N 69°09' E 017°53'8 8.1
2016-Nov-26 00:33N 69°17' E 017°58'5756.6
2016-Nov-25 23:32N 69°56' E 020°00'7 7.1
2016-Nov-25 22:32N 69°60' E 020°18'7 7.2
2016-Nov-25 21:33N 70°02' E 020°37'7 7.2
2016-Nov-25 20:33N 70°04' E 020°57'7 7.3
2016-Nov-25 19:34N 70°04' E 021°19'1211.2
2016-Nov-25 18:31N 70°04' E 021°53'0 0.0
2016-Nov-25 17:34N 70°04' E 021°53'1 1.3
2016-Nov-25 16:33N 70°03' E 021°49'  
Track history (hours):
 
Tides and Currents Weather Stations Pressure Air Temp Water Temp Dewpoint Dewpoint Depression Visibility Wind Speed Wind Dir Waves Ship Positions

Rostein

Last reported at 2016-Dec-03 04:20 UTC. Time now 2016-Dec-08 06:09 UTC.
Position N 70°02' E 020°17'.

Length 57 m; draft 4 m.

Type: Cargo ship. MMSI: 257210000.

Date/timePositionNaut miles runAvg speedWind from/ knotsBaromVisibWave heightAir tempDewpointWater temp
2016-Dec-03 04:20N 70°02' E 020°17'5 6.9
2016-Dec-03 03:33N 70°02' E 020°01'7 6.9
2016-Dec-03 02:32N 70°03' E 019°41'7 6.7
2016-Dec-03 01:33N 70°03' E 019°22'2 1.6
2016-Dec-03 00:33N 70°04' E 019°18'0 0.0
2016-Dec-02 23:33N 70°04' E 019°18'0 0.0
2016-Dec-02 22:32N 70°04' E 019°18'0 0.0
2016-Dec-02 21:32N 70°04' E 019°18'2410.9
2016-Dec-02 19:19N 70°01' E 020°29'6 7.6
2016-Dec-02 18:33N 70°02' E 020°46'8829.2
2016-Dec-02 15:32N 69°22' E 017°02'0 0.0
2016-Dec-02 14:33N 69°22' E 017°02'0 0.0
2016-Dec-02 13:33N 69°22' E 017°02'0 0.0
2016-Dec-02 12:33N 69°22' E 017°02'0 0.0
2016-Dec-02 11:33N 69°22' E 017°02'0 0.0
2016-Dec-02 10:14N 69°22' E 017°02'4363.8
2016-Dec-02 09:33N 69°49' E 018°40'4 3.4
2016-Dec-02 08:32N 69°52' E 018°38'4 3.7
2016-Dec-02 07:32N 69°53' E 018°48'6 5.5
2016-Dec-02 06:31N 69°49' E 018°60'5 5.3
2016-Dec-02 05:32N 69°47' E 019°13'6 5.5
2016-Dec-02 04:28N 69°49' E 019°30'19 6.4
2016-Dec-02 01:33N 69°59' E 020°15'28 9.2
2016-Dec-01 22:32N 69°45' E 019°06'8 7.9
2016-Dec-01 21:33N 69°48' E 019°26'8 8.2
2016-Dec-01 20:33N 69°52' E 019°48'9 8.6
2016-Dec-01 19:33N 69°57' E 020°07'18 8.3
2016-Dec-01 17:20N 70°04' E 020°57'2 2.5
2016-Dec-01 16:33N 70°02' E 020°59'2 1.5
2016-Dec-01 15:13N 70°04' E 020°56'5 7.5
2016-Dec-01 14:32N 70°01' E 020°42'2 1.7
2016-Dec-01 13:33N 69°60' E 020°43'0 0.0
2016-Dec-01 12:34N 69°60' E 020°43'0 0.0
2016-Dec-01 11:31N 69°60' E 020°43'3 2.6
2016-Dec-01 10:33N 70°02' E 020°45'6 5.8
2016-Dec-01 09:33N 70°03' E 021°02'1 1.1
2016-Dec-01 08:33N 70°02' E 020°59'2 1.9
2016-Dec-01 07:33N 70°04' E 020°56'6 6.0
2016-Dec-01 06:32N 70°00' E 020°41'1 0.9
2016-Dec-01 05:33N 69°60' E 020°43'0 0.0
2016-Dec-01 04:33N 69°60' E 020°43'0 0.0
2016-Dec-01 03:33N 69°60' E 020°43'4 3.6
2016-Dec-01 02:33N 70°03' E 020°48'7 7.5
2016-Dec-01 01:33N 70°04' E 021°09'7 7.4
2016-Dec-01 00:33N 70°04' E 021°31'7 7.3
2016-Nov-30 23:32N 70°04' E 021°53'0 0.1
2016-Nov-30 22:33N 70°04' E 021°53'5 3.8
2016-Nov-30 21:17N 69°60' E 021°44'6 0.9
2016-Nov-30 14:09N 69°55' E 021°36'5 2.9
2016-Nov-30 12:33N 69°59' E 021°35'7 6.8
2016-Nov-30 11:32N 70°04' E 021°19'7 6.9
2016-Nov-30 10:34N 70°04' E 020°59'6 6.4
2016-Nov-30 09:33N 70°02' E 020°41'7 7.3
2016-Nov-30 08:32N 69°60' E 020°21'7 7.5
2016-Nov-30 07:33N 69°56' E 020°03'8 7.7
2016-Nov-30 06:33N 69°51' E 019°46'8 7.5
2016-Nov-30 05:33N 69°48' E 019°25'7 7.0
2016-Nov-30 04:33N 69°45' E 019°07'8 7.7
2016-Nov-30 03:33N 69°38' E 018°57'8 7.9
2016-Nov-30 02:32N 69°33' E 018°39'8 8.3
2016-Nov-30 01:33N 69°30' E 018°18'7 6.9
2016-Nov-30 00:34N 69°24' E 018°06'8 7.9
2016-Nov-29 23:33N 69°17' E 017°58'7 7.0
2016-Nov-29 22:33N 69°10' E 017°56'9 8.7
2016-Nov-29 21:33N 69°07' E 017°34'8 8.1
2016-Nov-29 20:33N 69°01' E 017°17'8 7.7
2016-Nov-29 19:33N 68°56' E 017°01'8 7.5
2016-Nov-29 18:32N 68°51' E 016°45'6 5.8
2016-Nov-29 17:33N 68°47' E 016°33'0 0.0
2016-Nov-29 16:34N 68°47' E 016°33'0 0.0
2016-Nov-29 15:33N 68°47' E 016°33'0 0.0
2016-Nov-29 14:33N 68°47' E 016°33'0 0.0
2016-Nov-29 13:33N 68°47' E 016°33'0 0.0
2016-Nov-29 12:33N 68°47' E 016°33'0 0.0
2016-Nov-29 11:33N 68°47' E 016°33'0 0.0
2016-Nov-29 10:33N 68°47' E 016°33'0 0.0
2016-Nov-29 09:34N 68°47' E 016°33'0 0.0
2016-Nov-29 08:33N 68°47' E 016°33'0 0.0
2016-Nov-29 07:33N 68°47' E 016°33'0 0.0
2016-Nov-29 06:33N 68°47' E 016°33'0 0.0
2016-Nov-29 05:33N 68°47' E 016°33'0 0.0
2016-Nov-29 04:33N 68°47' E 016°33'0 0.0
2016-Nov-29 03:33N 68°47' E 016°33'0 0.0
2016-Nov-29 02:33N 68°47' E 016°33'0 0.0
2016-Nov-29 01:33N 68°47' E 016°33'0 0.0
2016-Nov-29 00:33N 68°47' E 016°33'0 0.0
2016-Nov-28 23:33N 68°47' E 016°33'0 0.0
2016-Nov-28 22:33N 68°47' E 016°33'0 0.0
2016-Nov-28 21:33N 68°47' E 016°33'0 0.0
2016-Nov-28 20:33N 68°47' E 016°33'0 0.0
2016-Nov-28 19:33N 68°47' E 016°33'0 0.0
2016-Nov-28 18:33N 68°47' E 016°33'0 0.0
2016-Nov-28 17:33N 68°47' E 016°33'0 0.0
2016-Nov-28 16:33N 68°47' E 016°33'11 5.1
2016-Nov-28 14:26N 68°54' E 016°57'7 8.2
2016-Nov-28 13:31N 68°56' E 017°17'7 7.4
2016-Nov-28 12:32N 68°54' E 017°36'2 2.0
2016-Nov-28 11:33N 68°54' E 017°41'1 1.1
2016-Nov-28 10:33N 68°54' E 017°39'6 5.8
2016-Nov-28 09:33N 68°50' E 017°28'2 1.5
2016-Nov-28 08:32N 68°49' E 017°31'0 0.4
2016-Nov-28 07:33N 68°49' E 017°31'6 6.0
2016-Nov-28 06:32N 68°54' E 017°41'0 0.4
2016-Nov-28 05:31N 68°54' E 017°41'1 0.6
2016-Nov-28 04:32N 68°54' E 017°40'6 5.6
2016-Nov-28 03:33N 68°50' E 017°28'2 2.1
2016-Nov-28 02:33N 68°49' E 017°31'0 0.0
2016-Nov-28 01:33N 68°49' E 017°31'6 5.5
2016-Nov-28 00:32N 68°47' E 017°17'8 8.2
2016-Nov-27 23:33N 68°43' E 016°57'4 4.3
2016-Nov-27 22:32N 68°47' E 016°55'0 0.0
2016-Nov-27 21:33N 68°47' E 016°55'3434.5
2016-Nov-27 20:33N 69°12' E 018°01'1111.3
2016-Nov-27 19:34N 69°06' E 017°33'2323.1
2016-Nov-27 18:33N 68°47' E 016°55'0 0.0
2016-Nov-27 17:33N 68°47' E 016°55'0 0.0
2016-Nov-27 16:32N 68°47' E 016°55'1 1.0
2016-Nov-27 15:33N 68°48' E 016°53'0 0.1
2016-Nov-27 14:33N 68°48' E 016°53'4 4.4
2016-Nov-27 13:32N 68°53' E 016°55'6 6.5
2016-Nov-27 12:33N 68°57' E 017°08'14 6.9
2016-Nov-27 10:32N 69°07' E 017°35'19 5.8
2016-Nov-27 07:14N 69°23' E 018°05'5 6.8
2016-Nov-27 06:32N 69°28' E 018°07'10 7.0
2016-Nov-27 05:09N 69°32' E 018°32'4 7.0
2016-Nov-27 04:33N 69°33' E 018°44'7 6.8
2016-Nov-27 03:33N 69°38' E 018°57'1 0.8
2016-Nov-27 02:33N 69°39' E 018°58'0 0.0
2016-Nov-27 01:33N 69°39' E 018°58'0 0.0
2016-Nov-27 00:33N 69°39' E 018°58'0 0.0
2016-Nov-26 23:33N 69°39' E 018°58'0 0.0
2016-Nov-26 22:33N 69°39' E 018°58'0 0.0
2016-Nov-26 21:32N 69°39' E 018°58'0 0.0
2016-Nov-26 20:33N 69°39' E 018°58'0 0.0
2016-Nov-26 19:33N 69°39' E 018°58'0 0.0
2016-Nov-26 18:32N 69°39' E 018°58'0 0.0
2016-Nov-26 17:33N 69°39' E 018°58'0 0.0
2016-Nov-26 16:32N 69°39' E 018°58'0 0.0
2016-Nov-26 15:33N 69°39' E 018°58'0 0.0
2016-Nov-26 14:33N 69°39' E 018°58'0 0.0
2016-Nov-26 13:33N 69°39' E 018°58'0 0.0
2016-Nov-26 12:32N 69°39' E 018°58'0 0.0
2016-Nov-26 11:33N 69°39' E 018°58'0 0.0
2016-Nov-26 10:32N 69°39' E 018°58'0 0.0
2016-Nov-26 09:33N 69°39' E 018°58'0 0.0
2016-Nov-26 08:33N 69°39' E 018°58'1 0.6
2016-Nov-26 07:33N 69°40' E 018°58'0 0.0
2016-Nov-26 06:32N 69°40' E 018°58'0 0.0
2016-Nov-26 05:33N 69°40' E 018°58'0 0.0
2016-Nov-26 04:32N 69°40' E 018°58'5757.5
2016-Nov-26 03:33N 68°58' E 017°10'10 9.9
2016-Nov-26 02:33N 69°06' E 017°26'1010.4
2016-Nov-26 01:34N 69°09' E 017°53'8 8.1
2016-Nov-26 00:33N 69°17' E 017°58'5756.6
2016-Nov-25 23:32N 69°56' E 020°00'7 7.1
2016-Nov-25 22:32N 69°60' E 020°18'7 7.2
2016-Nov-25 21:33N 70°02' E 020°37'7 7.2
2016-Nov-25 20:33N 70°04' E 020°57'7 7.3
2016-Nov-25 19:34N 70°04' E 021°19'1211.2
2016-Nov-25 18:31N 70°04' E 021°53'0 0.0
2016-Nov-25 17:34N 70°04' E 021°53'1 1.3
2016-Nov-25 16:33N 70°03' E 021°49'  

Dump ship's entire track history